createdAt,value
2023-12-08T00:00:11.627Z,62.49
2023-12-08T00:01:16.811Z,62.94
2023-12-08T00:02:18.529Z,62.67
2023-12-08T00:03:20.088Z,62.93
2023-12-08T00:04:21.781Z,63.48
2023-12-08T00:05:23.508Z,62.87
2023-12-08T00:06:25.400Z,63.94
2023-12-08T00:07:27.727Z,66.14
2023-12-08T00:08:29.511Z,66.93
2023-12-08T00:09:32.512Z,68.37
2023-12-08T00:10:34.426Z,68.75
2023-12-08T00:11:36.005Z,69.26
2023-12-08T00:12:37.629Z,67.94
2023-12-08T00:13:39.265Z,66.72
2023-12-08T00:14:40.991Z,67.17
2023-12-08T00:15:42.975Z,65.00
2023-12-08T00:16:44.526Z,65.89
2023-12-08T00:17:46.227Z,64.85
2023-12-08T00:18:48.096Z,68.88
2023-12-08T00:19:50.344Z,68.10
2023-12-08T00:20:52.123Z,66.80
2023-12-08T00:21:53.786Z,66.13
2023-12-08T00:22:55.500Z,65.70
2023-12-08T00:23:57.162Z,64.91
2023-12-08T00:24:59.216Z,64.85
2023-12-08T00:26:02.290Z,63.71
2023-12-08T00:27:04.040Z,63.68
2023-12-08T00:28:05.844Z,63.68
2023-12-08T00:29:07.561Z,64.25
2023-12-08T00:30:09.627Z,63.90
2023-12-08T00:31:12.353Z,63.97
2023-12-08T00:32:17.604Z,63.02
2023-12-08T00:33:19.332Z,63.41
2023-12-08T00:34:21.111Z,64.00
2023-12-08T00:35:25.091Z,63.43
2023-12-08T00:36:27.160Z,63.18
2023-12-08T00:37:29.172Z,64.04
2023-12-08T00:38:31.232Z,64.11
2023-12-08T00:39:32.800Z,64.79
2023-12-08T00:40:34.376Z,64.61
2023-12-08T00:41:36.533Z,64.92
2023-12-08T00:42:38.443Z,64.96
2023-12-08T00:43:40.027Z,64.36
2023-12-08T00:44:41.761Z,63.98
2023-12-08T00:45:43.382Z,63.91
2023-12-08T00:46:45.331Z,64.29
2023-12-08T00:47:47.212Z,64.21
2023-12-08T00:48:49.053Z,63.70
2023-12-08T00:49:51.113Z,63.81
2023-12-08T00:50:52.794Z,63.70
2023-12-08T00:51:55.184Z,63.84
2023-12-08T00:52:56.875Z,64.29
2023-12-08T00:53:58.538Z,64.22
2023-12-08T00:55:00.151Z,65.01
2023-12-08T00:56:01.773Z,64.82
2023-12-08T00:57:04.159Z,64.19
2023-12-08T00:58:05.854Z,63.74
2023-12-08T00:59:07.437Z,64.35
2023-12-08T01:00:09.390Z,64.17
2023-12-08T01:01:11.532Z,64.40
2023-12-08T01:02:13.569Z,63.89
2023-12-08T01:03:15.754Z,63.96
2023-12-08T01:04:20.605Z,64.13
2023-12-08T01:05:22.329Z,63.64
2023-12-08T01:06:23.969Z,64.16
2023-12-08T01:07:25.854Z,63.56
2023-12-08T01:08:27.666Z,64.14
2023-12-08T01:09:29.396Z,63.90
2023-12-08T01:10:31.026Z,63.24
2023-12-08T01:11:34.933Z,64.38
2023-12-08T01:12:37.001Z,63.40
2023-12-08T01:13:39.023Z,63.53
2023-12-08T01:14:41.348Z,63.35
2023-12-08T01:15:43.057Z,62.85
2023-12-08T01:16:45.105Z,64.45
2023-12-08T01:17:46.807Z,63.72
2023-12-08T01:18:48.516Z,63.84
2023-12-08T01:19:50.131Z,64.02
2023-12-08T01:20:53.256Z,63.45
2023-12-08T01:21:55.503Z,64.06
2023-12-08T01:22:57.585Z,63.72
2023-12-08T01:23:59.649Z,63.26
2023-12-08T01:25:01.581Z,63.39
2023-12-08T01:26:06.507Z,63.83
2023-12-08T01:27:08.110Z,64.06
2023-12-08T01:28:09.653Z,63.94
2023-12-08T01:29:12.168Z,63.43
2023-12-08T01:30:14.572Z,63.46
2023-12-08T01:31:16.319Z,63.25
2023-12-08T01:32:18.972Z,64.41
2023-12-08T01:33:20.802Z,64.04
2023-12-08T01:34:22.633Z,63.56
2023-12-08T01:35:24.365Z,64.46
2023-12-08T01:36:41.631Z,63.66
2023-12-08T01:37:46.075Z,63.50
2023-12-08T01:38:47.797Z,63.02
2023-12-08T01:39:49.661Z,63.99
2023-12-08T01:40:51.353Z,64.05
2023-12-08T01:41:53.028Z,63.77
2023-12-08T01:42:55.145Z,63.34
2023-12-08T01:43:56.813Z,63.25
2023-12-08T01:44:58.465Z,63.62
2023-12-08T01:46:00.278Z,64.04
2023-12-08T01:47:01.898Z,63.73
2023-12-08T01:48:04.304Z,63.57
2023-12-08T01:49:07.333Z,63.66
2023-12-08T01:50:08.931Z,62.94
2023-12-08T01:51:11.232Z,63.56
2023-12-08T01:52:12.889Z,62.80
2023-12-08T01:53:14.879Z,63.54
2023-12-08T01:54:16.581Z,63.53
2023-12-08T01:55:18.290Z,63.61
2023-12-08T01:56:19.882Z,63.27
2023-12-08T01:57:21.628Z,63.52
2023-12-08T01:58:23.927Z,62.79
2023-12-08T01:59:25.617Z,63.83
2023-12-08T02:00:28.335Z,63.83
2023-12-08T02:01:30.173Z,65.55
2023-12-08T02:02:32.113Z,65.79
2023-12-08T02:03:36.820Z,67.52
2023-12-08T02:04:38.497Z,66.58
2023-12-08T02:05:41.471Z,65.75
2023-12-08T02:06:43.087Z,65.24
2023-12-08T02:07:45.396Z,65.23
2023-12-08T02:08:48.077Z,64.91
2023-12-08T02:09:49.694Z,64.12
2023-12-08T02:10:51.314Z,64.51
2023-12-08T02:11:52.977Z,63.86
2023-12-08T02:12:54.912Z,64.32
2023-12-08T02:15:08.590Z,64.46
2023-12-08T02:16:17.229Z,64.15
2023-12-08T02:17:27.348Z,64.19
2023-12-08T02:18:29.331Z,64.23
2023-12-08T02:19:31.283Z,63.87
2023-12-08T02:20:33.243Z,64.92
2023-12-08T02:21:35.283Z,64.17
2023-12-08T02:22:37.003Z,64.22
2023-12-08T02:23:38.679Z,64.65
2023-12-08T02:24:40.245Z,64.42
2023-12-08T02:25:42.516Z,67.25
2023-12-08T02:26:44.109Z,66.72
2023-12-08T02:27:45.709Z,68.15
2023-12-08T02:28:47.305Z,67.88
2023-12-08T02:29:48.915Z,65.59
2023-12-08T02:30:50.525Z,65.17
2023-12-08T02:32:06.255Z,65.16
2023-12-08T02:33:19.955Z,64.22
2023-12-08T02:34:21.603Z,64.18
2023-12-08T02:35:23.276Z,64.11
2023-12-08T02:36:24.834Z,64.21
2023-12-08T02:37:26.961Z,64.02
2023-12-08T02:38:28.645Z,63.85
2023-12-08T02:39:30.206Z,64.41
2023-12-08T02:40:31.836Z,64.30
2023-12-08T02:41:33.622Z,63.87
2023-12-08T02:42:35.998Z,63.71
2023-12-08T02:43:37.592Z,63.83
2023-12-08T02:44:39.165Z,63.63
2023-12-08T02:45:40.745Z,63.67
2023-12-08T02:46:42.829Z,63.55
2023-12-08T02:47:44.513Z,63.36
2023-12-08T02:48:54.230Z,63.55
2023-12-08T02:49:57.342Z,63.02
2023-12-08T02:50:59.134Z,63.08
2023-12-08T02:52:00.731Z,63.43
2023-12-08T02:53:02.633Z,63.66
2023-12-08T02:54:04.339Z,63.40
2023-12-08T02:55:06.181Z,62.80
2023-12-08T02:56:08.384Z,63.15
2023-12-08T02:57:10.124Z,63.00
2023-12-08T02:58:12.085Z,62.13
2023-12-08T02:59:13.767Z,63.29
2023-12-08T03:00:15.562Z,64.06
2023-12-08T03:01:17.845Z,65.62
2023-12-08T03:02:19.605Z,66.90
2023-12-08T03:03:21.610Z,66.58
2023-12-08T03:04:23.355Z,65.42
2023-12-08T03:05:24.954Z,64.62
2023-12-08T03:06:26.533Z,64.99
2023-12-08T03:07:28.292Z,64.42
2023-12-08T03:08:30.387Z,64.40
2023-12-08T03:09:31.983Z,63.56
2023-12-08T03:10:33.546Z,67.01
2023-12-08T03:11:35.149Z,67.71
2023-12-08T03:12:36.776Z,66.23
2023-12-08T03:13:38.722Z,65.93
2023-12-08T03:14:40.523Z,68.89
2023-12-08T03:15:42.230Z,68.45
2023-12-08T03:16:47.045Z,68.98
2023-12-08T03:17:48.741Z,68.00
2023-12-08T03:18:50.869Z,69.33
2023-12-08T03:19:52.641Z,72.20
2023-12-08T03:20:54.515Z,70.88
2023-12-08T03:21:56.143Z,69.71
2023-12-08T03:22:58.136Z,68.53
2023-12-08T03:23:59.824Z,71.78
2023-12-08T03:25:01.560Z,69.94
2023-12-08T03:26:03.511Z,67.75
2023-12-08T03:27:05.218Z,68.84
2023-12-08T03:28:07.149Z,69.50
2023-12-08T03:29:08.790Z,69.22
2023-12-08T03:30:12.870Z,68.12
2023-12-08T03:31:27.266Z,66.34
2023-12-08T03:32:29.038Z,65.12
2023-12-08T03:33:31.124Z,64.61
2023-12-08T03:34:32.815Z,64.40
2023-12-08T03:35:34.433Z,64.22
2023-12-08T03:36:36.069Z,64.19
2023-12-08T03:37:37.701Z,63.83
2023-12-08T03:38:39.705Z,63.99
2023-12-08T03:39:41.293Z,63.94
2023-12-08T03:40:42.989Z,63.23
2023-12-08T03:41:44.629Z,64.77
2023-12-08T03:42:46.337Z,65.09
2023-12-08T03:43:48.309Z,64.39
2023-12-08T03:44:49.950Z,63.70
2023-12-08T03:45:51.536Z,64.57
2023-12-08T03:46:53.087Z,64.49
2023-12-08T03:47:54.761Z,63.64
2023-12-08T03:48:56.924Z,64.17
2023-12-08T03:49:58.682Z,64.05
2023-12-08T03:51:00.338Z,63.74
2023-12-08T03:52:01.933Z,64.04
2023-12-08T03:53:03.531Z,64.32
2023-12-08T03:54:05.539Z,65.37
2023-12-08T03:55:07.712Z,64.91
2023-12-08T03:56:09.545Z,65.54
2023-12-08T03:57:11.224Z,65.55
2023-12-08T03:58:12.874Z,66.02
2023-12-08T03:59:14.500Z,65.59
2023-12-08T04:00:16.538Z,67.81
2023-12-08T04:01:18.722Z,70.76
2023-12-08T04:02:20.325Z,70.32
2023-12-08T04:03:21.966Z,68.64
2023-12-08T04:04:26.375Z,67.98
2023-12-08T04:05:29.290Z,67.51
2023-12-08T04:06:30.966Z,69.27
2023-12-08T04:07:32.573Z,70.22
2023-12-08T04:08:34.176Z,68.05
2023-12-08T04:09:36.107Z,68.64
2023-12-08T04:10:38.248Z,70.84
2023-12-08T04:11:39.879Z,73.86
2023-12-08T04:12:41.425Z,74.44
2023-12-08T04:13:43.045Z,71.31
2023-12-08T04:14:45.455Z,69.23
2023-12-08T04:15:47.182Z,70.99
2023-12-08T04:16:51.677Z,69.65
2023-12-08T04:17:53.387Z,70.38
2023-12-08T04:18:55.172Z,72.86
2023-12-08T04:19:57.176Z,72.15
2023-12-08T04:20:58.791Z,71.84
2023-12-08T04:22:00.373Z,70.02
2023-12-08T04:23:04.584Z,68.88
2023-12-08T04:24:06.727Z,67.17
2023-12-08T04:25:08.832Z,66.30
2023-12-08T04:26:10.362Z,65.42
2023-12-08T04:27:12.171Z,65.89
2023-12-08T04:28:13.760Z,66.53
2023-12-08T04:29:15.330Z,64.87
2023-12-08T04:30:17.102Z,64.13
2023-12-08T04:31:18.780Z,65.08
2023-12-08T04:32:20.338Z,67.56
2023-12-08T04:33:22.210Z,65.87
2023-12-08T04:34:24.085Z,65.28
2023-12-08T04:35:26.095Z,64.75
2023-12-08T04:36:27.770Z,64.96
2023-12-08T04:37:29.387Z,66.76
2023-12-08T04:38:31.058Z,67.68
2023-12-08T04:39:32.630Z,67.25
2023-12-08T04:40:34.531Z,64.67
2023-12-08T04:41:36.283Z,64.81
2023-12-08T04:42:37.898Z,64.44
2023-12-08T04:43:39.464Z,64.05
2023-12-08T04:44:41.124Z,65.27
2023-12-08T04:45:43.487Z,64.58
2023-12-08T04:46:45.055Z,63.78
2023-12-08T04:47:46.744Z,63.69
2023-12-08T04:48:48.657Z,62.53
2023-12-08T04:49:50.942Z,62.55
2023-12-08T04:50:53.181Z,61.77
2023-12-08T04:51:54.803Z,61.57
2023-12-08T04:52:56.442Z,61.80
2023-12-08T04:53:58.079Z,62.23
2023-12-08T04:55:00.157Z,64.96
2023-12-08T04:56:01.780Z,63.72
2023-12-08T04:57:05.138Z,63.16
2023-12-08T04:58:07.035Z,62.73
2023-12-08T04:59:09.491Z,62.80
2023-12-08T05:00:11.669Z,61.80
2023-12-08T05:01:14.354Z,64.45
2023-12-08T05:02:15.979Z,66.82
2023-12-08T05:03:17.647Z,66.47
2023-12-08T05:04:22.276Z,67.99
2023-12-08T05:05:24.159Z,67.63
2023-12-08T05:06:27.641Z,69.97
2023-12-08T05:07:30.246Z,69.38
2023-12-08T05:08:31.843Z,68.66
2023-12-08T05:09:33.386Z,67.39
2023-12-08T05:10:35.278Z,67.05
2023-12-08T05:11:36.865Z,66.22
2023-12-08T05:12:38.595Z,65.02
2023-12-08T05:13:40.170Z,64.30
2023-12-08T05:14:41.778Z,63.36
2023-12-08T05:15:43.796Z,63.05
2023-12-08T05:16:45.406Z,63.11
2023-12-08T05:17:47.113Z,62.29
2023-12-08T05:18:49.028Z,62.64
2023-12-08T05:19:50.735Z,62.36
2023-12-08T05:20:53.016Z,62.00
2023-12-08T05:21:56.349Z,62.77
2023-12-08T05:22:57.904Z,62.31
2023-12-08T05:23:59.499Z,61.83
2023-12-08T05:25:01.098Z,64.99
2023-12-08T05:26:03.333Z,64.12
2023-12-08T05:27:05.279Z,63.34
2023-12-08T05:28:07.053Z,63.43
2023-12-08T05:29:09.481Z,62.95
2023-12-08T05:30:11.962Z,62.14
2023-12-08T05:31:13.674Z,61.47
2023-12-08T05:32:15.381Z,60.85
2023-12-08T05:33:17.388Z,60.66
2023-12-08T05:34:20.237Z,60.52
2023-12-08T05:35:21.854Z,60.33
2023-12-08T05:36:23.535Z,60.76
2023-12-08T05:37:25.425Z,60.54
2023-12-08T05:38:27.169Z,61.28
2023-12-08T05:39:28.950Z,61.32
2023-12-08T05:40:30.486Z,60.91
2023-12-08T05:41:32.418Z,61.12
2023-12-08T05:42:34.163Z,61.21
2023-12-08T05:43:35.805Z,61.28
2023-12-08T05:44:38.096Z,61.09
2023-12-08T05:45:39.787Z,60.96
2023-12-08T05:46:41.713Z,60.68
2023-12-08T05:47:44.777Z,60.87
2023-12-08T05:48:46.724Z,60.69
2023-12-08T05:49:48.555Z,62.42
2023-12-08T05:50:50.206Z,65.62
2023-12-08T05:51:52.243Z,64.67
2023-12-08T05:52:53.833Z,63.25
2023-12-08T05:53:55.556Z,63.21
2023-12-08T05:54:57.139Z,65.57
2023-12-08T05:55:58.796Z,64.34
2023-12-08T05:57:01.051Z,63.11
2023-12-08T05:58:03.047Z,62.16
2023-12-08T05:59:04.773Z,61.68
2023-12-08T06:00:10.988Z,60.97
2023-12-08T06:01:14.786Z,60.47
2023-12-08T06:02:16.798Z,60.50
2023-12-08T06:03:18.704Z,60.41
2023-12-08T06:04:20.299Z,65.53
2023-12-08T06:05:21.997Z,70.37
2023-12-08T06:06:23.846Z,69.70
2023-12-08T06:07:26.210Z,69.10
2023-12-08T06:08:28.080Z,66.55
2023-12-08T06:09:29.672Z,64.87
2023-12-08T06:10:31.286Z,63.51
2023-12-08T06:11:33.108Z,64.43
2023-12-08T06:12:35.734Z,63.52
2023-12-08T06:13:37.351Z,62.92
2023-12-08T06:14:39.148Z,63.00
2023-12-08T06:15:41.175Z,62.94
2023-12-08T06:16:42.965Z,63.16
2023-12-08T06:17:45.301Z,62.59
2023-12-08T06:18:47.316Z,62.74
2023-12-08T06:19:49.872Z,62.49
2023-12-08T06:20:51.530Z,62.38
2023-12-08T06:21:53.463Z,61.92
2023-12-08T06:22:55.566Z,62.15
2023-12-08T06:23:57.526Z,63.36
2023-12-08T06:24:59.195Z,62.03
2023-12-08T06:26:00.794Z,62.22
2023-12-08T06:27:02.749Z,61.83
2023-12-08T06:28:04.688Z,61.00
2023-12-08T06:29:06.337Z,61.53
2023-12-08T06:30:09.235Z,61.01
2023-12-08T06:31:11.037Z,62.94
2023-12-08T06:32:12.971Z,62.26
2023-12-08T06:33:14.771Z,61.36
2023-12-08T06:34:17.448Z,60.67
2023-12-08T06:35:19.682Z,60.52
2023-12-08T06:36:21.330Z,60.36
2023-12-08T06:37:23.390Z,60.03
2023-12-08T06:38:25.102Z,60.59
2023-12-08T06:39:26.797Z,60.86
2023-12-08T06:40:28.415Z,60.35
2023-12-08T06:41:29.975Z,65.77
2023-12-08T06:42:31.933Z,66.28
2023-12-08T06:43:33.502Z,67.07
2023-12-08T06:44:35.274Z,69.52
2023-12-08T06:45:36.926Z,70.94
2023-12-08T06:46:38.546Z,66.90
2023-12-08T06:47:40.533Z,65.83
2023-12-08T06:48:42.254Z,65.00
2023-12-08T06:49:44.190Z,64.61
2023-12-08T06:50:45.989Z,63.67
2023-12-08T06:51:47.585Z,65.56
2023-12-08T06:52:52.826Z,67.96
2023-12-08T06:53:54.586Z,66.77
2023-12-08T06:54:56.211Z,65.82
2023-12-08T06:55:57.765Z,66.37
2023-12-08T06:56:59.387Z,65.64
2023-12-08T06:58:01.795Z,64.83
2023-12-08T06:59:03.474Z,70.04
2023-12-08T07:00:11.422Z,69.41
2023-12-08T07:01:13.273Z,69.32
2023-12-08T07:02:15.953Z,72.06
2023-12-08T07:03:17.698Z,69.40
2023-12-08T07:04:19.469Z,66.34
2023-12-08T07:05:22.225Z,65.20
2023-12-08T07:06:24.748Z,68.51
2023-12-08T07:07:26.750Z,70.93
2023-12-08T07:08:29.199Z,69.15
2023-12-08T07:09:31.445Z,69.40
2023-12-08T07:10:33.058Z,70.45
2023-12-08T07:11:35.127Z,69.72
2023-12-08T07:12:37.174Z,69.48
2023-12-08T07:13:39.247Z,70.43
2023-12-08T07:14:40.944Z,69.78
2023-12-08T07:15:42.688Z,70.32
2023-12-08T07:16:44.985Z,71.47
2023-12-08T07:17:47.129Z,71.79
2023-12-08T07:18:53.476Z,68.84
2023-12-08T07:19:56.792Z,66.47
2023-12-08T07:20:58.514Z,65.16
2023-12-08T07:22:00.222Z,64.43
2023-12-08T07:23:02.546Z,65.11
2023-12-08T07:24:07.388Z,65.52
2023-12-08T07:25:10.251Z,63.23
2023-12-08T07:26:11.892Z,67.21
2023-12-08T07:27:13.632Z,66.84
2023-12-08T07:28:15.265Z,65.48
2023-12-08T07:29:17.304Z,65.45
2023-12-08T07:30:19.068Z,63.49
2023-12-08T07:31:20.733Z,62.32
2023-12-08T07:32:22.381Z,63.89
2023-12-08T07:33:24.269Z,65.36
2023-12-08T07:34:26.074Z,66.10
2023-12-08T07:35:27.705Z,64.89
2023-12-08T07:36:29.348Z,67.58
2023-12-08T07:37:31.171Z,68.49
2023-12-08T07:38:33.229Z,66.16
2023-12-08T07:39:35.179Z,64.91
2023-12-08T07:40:36.935Z,64.66
2023-12-08T07:41:38.838Z,70.31
2023-12-08T07:42:40.528Z,72.02
2023-12-08T07:43:42.798Z,72.13
2023-12-08T07:44:46.167Z,72.93
2023-12-08T07:45:48.086Z,71.75
2023-12-08T07:46:49.724Z,70.72
2023-12-08T07:47:51.514Z,71.35
2023-12-08T07:48:53.664Z,69.27
2023-12-08T07:49:55.508Z,66.96
2023-12-08T07:50:57.208Z,69.17
2023-12-08T07:51:58.852Z,66.06
2023-12-08T07:53:01.073Z,68.29
2023-12-08T07:54:04.690Z,65.75
2023-12-08T07:55:06.935Z,63.92
2023-12-08T07:56:09.250Z,62.87
2023-12-08T07:57:11.127Z,63.32
2023-12-08T07:58:12.931Z,66.90
2023-12-08T07:59:14.734Z,64.79
2023-12-08T08:00:16.944Z,63.08
2023-12-08T08:01:18.562Z,61.97
2023-12-08T08:02:20.175Z,61.83
2023-12-08T08:03:21.878Z,61.29
2023-12-08T08:04:23.915Z,60.72
2023-12-08T08:05:26.265Z,60.71
2023-12-08T08:06:28.009Z,65.10
2023-12-08T08:07:30.049Z,65.28
2023-12-08T08:08:34.469Z,65.67
2023-12-08T08:09:36.197Z,67.70
2023-12-08T08:10:37.873Z,69.03
2023-12-08T08:11:39.600Z,67.30
2023-12-08T08:12:41.283Z,66.19
2023-12-08T08:13:43.339Z,66.89
2023-12-08T08:14:45.893Z,66.99
2023-12-08T08:15:47.555Z,67.08
2023-12-08T08:16:49.353Z,65.43
2023-12-08T08:17:51.191Z,63.39
2023-12-08T08:18:53.305Z,66.96
2023-12-08T08:19:55.016Z,66.53
2023-12-08T08:20:56.869Z,68.24
2023-12-08T08:22:28.119Z,69.92
2023-12-08T08:23:19.980Z,66.99
2023-12-08T08:24:21.931Z,64.85
2023-12-08T08:25:26.202Z,68.69
2023-12-08T08:26:28.376Z,67.41
2023-12-08T08:27:30.537Z,66.11
2023-12-08T08:28:32.457Z,65.74
2023-12-08T08:29:34.402Z,65.39
2023-12-08T08:30:36.280Z,64.57
2023-12-08T08:31:37.871Z,67.30
2023-12-08T08:32:39.466Z,70.30
2023-12-08T08:33:42.159Z,73.08
2023-12-08T08:34:45.002Z,70.18
2023-12-08T08:35:46.715Z,68.57
2023-12-08T08:36:48.318Z,67.43
2023-12-08T08:37:50.432Z,66.33
2023-12-08T08:38:52.430Z,65.28
2023-12-08T08:39:54.102Z,65.04
2023-12-08T08:40:55.917Z,64.89
2023-12-08T08:41:57.697Z,65.57
2023-12-08T08:42:59.307Z,64.85
2023-12-08T08:44:01.839Z,66.34
2023-12-08T08:45:04.161Z,67.30
2023-12-08T08:46:05.855Z,66.65
2023-12-08T08:47:08.117Z,69.20
2023-12-08T08:48:10.250Z,67.85
2023-12-08T08:49:12.681Z,65.82
2023-12-08T08:50:14.486Z,65.35
2023-12-08T08:51:17.723Z,65.72
2023-12-08T08:52:20.001Z,68.72
2023-12-08T08:53:22.226Z,67.32
2023-12-08T08:54:24.152Z,71.39
2023-12-08T08:55:25.735Z,71.49
2023-12-08T08:56:27.474Z,69.25
2023-12-08T08:57:29.540Z,68.02
2023-12-08T08:58:31.461Z,66.88
2023-12-08T08:59:33.716Z,65.73
2023-12-08T09:00:35.466Z,64.57
2023-12-08T09:01:39.412Z,64.47
2023-12-08T09:02:42.616Z,63.95
2023-12-08T09:03:44.756Z,64.36
2023-12-08T09:04:46.831Z,64.07
2023-12-08T09:05:48.505Z,63.95
2023-12-08T09:06:51.456Z,64.06
2023-12-08T09:07:53.348Z,64.78
2023-12-08T09:08:54.909Z,66.01
2023-12-08T09:09:57.852Z,68.32
2023-12-08T09:10:59.407Z,71.02
2023-12-08T09:12:00.988Z,70.63
2023-12-08T09:13:02.738Z,70.04
2023-12-08T09:14:04.358Z,68.55
2023-12-08T09:15:06.305Z,66.93
2023-12-08T09:16:08.055Z,66.48
2023-12-08T09:17:09.755Z,65.49
2023-12-08T09:18:16.114Z,70.18
2023-12-08T09:19:17.841Z,72.38
2023-12-08T09:20:19.808Z,71.45
2023-12-08T09:21:21.649Z,72.67
2023-12-08T09:22:23.632Z,74.35
2023-12-08T09:23:25.344Z,72.29
2023-12-08T09:24:27.447Z,71.85
2023-12-08T09:25:29.508Z,72.54
2023-12-08T09:26:31.130Z,73.70
2023-12-08T09:27:32.786Z,74.68
2023-12-08T09:28:34.739Z,72.49
2023-12-08T09:29:36.667Z,70.71
2023-12-08T09:30:38.287Z,74.79
2023-12-08T09:31:39.897Z,73.51
2023-12-08T09:32:41.591Z,75.13
2023-12-08T09:33:43.522Z,76.12
2023-12-08T09:34:45.777Z,73.37
2023-12-08T09:35:47.735Z,71.24
2023-12-08T09:37:24.892Z,73.68
2023-12-08T09:38:14.670Z,71.03
2023-12-08T09:39:22.699Z,73.14
2023-12-08T09:40:25.559Z,75.48
2023-12-08T09:41:27.135Z,75.70
2023-12-08T09:42:36.137Z,74.63
2023-12-08T09:43:45.952Z,71.42
2023-12-08T09:44:47.652Z,69.42
2023-12-08T09:45:49.636Z,67.68
2023-12-08T09:46:56.096Z,66.64
2023-12-08T09:47:57.835Z,67.52
2023-12-08T09:49:00.308Z,74.30
2023-12-08T09:50:03.385Z,71.39
2023-12-08T09:51:05.376Z,72.61
2023-12-08T09:52:07.004Z,73.01
2023-12-08T09:53:09.105Z,70.57
2023-12-08T09:54:11.141Z,69.34
2023-12-08T09:55:12.735Z,69.15
2023-12-08T09:56:14.868Z,73.30
2023-12-08T09:57:16.986Z,71.20
2023-12-08T09:58:18.955Z,68.37
2023-12-08T09:59:32.613Z,67.66
2023-12-08T10:00:35.489Z,66.15
2023-12-08T10:01:37.075Z,69.73
2023-12-08T10:02:38.696Z,73.18
2023-12-08T10:03:41.768Z,75.47
2023-12-08T10:04:43.324Z,77.04
2023-12-08T10:05:45.287Z,74.20
2023-12-08T10:06:46.896Z,72.67
2023-12-08T10:07:48.949Z,74.81
2023-12-08T10:08:51.397Z,72.11
2023-12-08T10:09:53.065Z,69.41
2023-12-08T10:10:55.103Z,72.62
2023-12-08T10:11:56.709Z,74.80
2023-12-08T10:12:59.434Z,71.91
2023-12-08T10:14:03.698Z,69.83
2023-12-08T10:15:12.705Z,68.01
2023-12-08T10:16:14.910Z,69.60
2023-12-08T10:17:16.571Z,70.16
2023-12-08T10:18:25.320Z,75.80
2023-12-08T10:19:27.312Z,72.14
2023-12-08T10:20:28.963Z,73.98
2023-12-08T10:21:30.878Z,70.72
2023-12-08T10:22:32.438Z,68.51
2023-12-08T10:23:34.189Z,68.06
2023-12-08T10:24:35.811Z,72.10
2023-12-08T10:25:38.025Z,72.59
2023-12-08T10:26:40.922Z,70.89
2023-12-08T10:27:42.552Z,69.16
2023-12-08T10:28:44.324Z,67.59
2023-12-08T10:29:45.941Z,66.99
2023-12-08T10:30:51.080Z,66.75
2023-12-08T10:31:54.020Z,65.93
2023-12-08T10:32:56.123Z,65.60
2023-12-08T10:33:58.233Z,67.45
2023-12-08T10:34:59.897Z,66.49
2023-12-08T10:36:01.545Z,65.51
2023-12-08T10:37:03.474Z,65.41
2023-12-08T10:38:05.049Z,65.22
2023-12-08T10:39:08.008Z,69.91
2023-12-08T10:40:13.499Z,67.89
2023-12-08T10:41:15.250Z,66.12
2023-12-08T10:42:17.155Z,66.22
2023-12-08T10:43:23.886Z,65.62
2023-12-08T10:44:26.861Z,65.26
2023-12-08T10:45:28.789Z,65.08
2023-12-08T10:46:33.360Z,70.99
2023-12-08T10:47:34.981Z,69.38
2023-12-08T10:48:38.850Z,67.74
2023-12-08T10:49:40.667Z,67.83
2023-12-08T10:50:43.382Z,68.86
2023-12-08T10:51:45.653Z,73.78
2023-12-08T10:52:47.195Z,73.56
2023-12-08T10:53:48.845Z,72.73
2023-12-08T10:54:50.442Z,76.42
2023-12-08T10:56:10.648Z,76.20
2023-12-08T10:57:13.189Z,72.33
2023-12-08T10:58:16.208Z,70.14
2023-12-08T10:59:22.595Z,72.21
2023-12-08T11:00:25.338Z,70.19
2023-12-08T11:01:26.991Z,71.08
2023-12-08T11:02:31.848Z,69.20
2023-12-08T11:03:34.191Z,69.54
2023-12-08T11:04:36.518Z,72.54
2023-12-08T11:05:46.600Z,71.57
2023-12-08T11:07:04.501Z,70.91
2023-12-08T11:08:13.688Z,68.78
2023-12-08T11:09:16.791Z,67.74
2023-12-08T11:10:19.476Z,67.44
2023-12-08T11:11:21.545Z,68.04
2023-12-08T11:12:23.792Z,73.68
2023-12-08T11:13:28.645Z,76.59
2023-12-08T11:14:39.171Z,73.26
2023-12-08T11:15:44.722Z,72.96
2023-12-08T11:16:52.697Z,70.39
2023-12-08T11:17:59.210Z,69.51
2023-12-08T11:19:01.040Z,75.02
2023-12-08T11:20:02.866Z,77.46
2023-12-08T11:21:08.556Z,73.75
2023-12-08T11:22:10.750Z,71.34
2023-12-08T11:23:12.325Z,74.48
2023-12-08T11:24:14.211Z,72.52
2023-12-08T11:25:22.673Z,74.15
2023-12-08T11:26:29.874Z,75.48
2023-12-08T11:27:39.854Z,77.40
2023-12-08T11:29:01.531Z,73.91
2023-12-08T11:30:11.525Z,71.70
2023-12-08T11:31:32.428Z,74.34
2023-12-08T11:32:48.770Z,75.19
2023-12-08T11:34:08.892Z,71.61
2023-12-08T11:35:11.898Z,77.55
2023-12-08T11:36:19.358Z,74.00
2023-12-08T11:37:22.278Z,72.27
2023-12-08T11:38:28.438Z,70.34
2023-12-08T11:39:35.776Z,69.05
2023-12-08T11:40:52.677Z,68.96
2023-12-08T11:41:54.684Z,67.94
2023-12-08T11:42:56.291Z,68.54
2023-12-08T11:43:57.955Z,68.81
2023-12-08T11:44:59.607Z,67.45
2023-12-08T11:46:02.388Z,67.57
2023-12-08T11:47:06.851Z,66.87
2023-12-08T11:48:15.296Z,67.48
2023-12-08T11:49:17.864Z,70.46
2023-12-08T11:50:19.655Z,71.05
2023-12-08T11:51:21.224Z,73.99
2023-12-08T11:52:39.104Z,77.16
2023-12-08T11:53:56.796Z,73.77
2023-12-08T11:55:31.112Z,70.90
2023-12-08T11:56:43.648Z,69.82
2023-12-08T11:57:47.969Z,69.82
2023-12-08T11:58:49.515Z,69.19
2023-12-08T11:59:51.113Z,74.84
2023-12-08T12:00:52.745Z,75.52
2023-12-08T12:01:54.301Z,71.94
2023-12-08T12:02:56.774Z,70.51
2023-12-08T12:03:58.646Z,69.69
2023-12-08T12:05:01.323Z,68.98
2023-12-08T12:06:04.103Z,68.72
2023-12-08T12:07:06.239Z,68.49
2023-12-08T12:08:11.056Z,71.84
2023-12-08T12:09:13.118Z,69.89
2023-12-08T12:10:15.256Z,67.95
2023-12-08T12:11:24.289Z,68.02
2023-12-08T12:12:31.030Z,67.53
2023-12-08T12:13:34.311Z,67.33
2023-12-08T12:14:35.867Z,67.11
2023-12-08T12:15:37.783Z,66.71
2023-12-08T12:16:40.113Z,66.75
2023-12-08T12:17:43.307Z,67.09
2023-12-08T12:18:45.167Z,67.80
2023-12-08T12:19:46.925Z,67.87
2023-12-08T12:20:48.938Z,73.52
2023-12-08T12:21:50.501Z,75.60
2023-12-08T12:22:52.376Z,76.39
2023-12-08T12:23:53.977Z,77.02
2023-12-08T12:24:55.569Z,73.54
2023-12-08T12:25:57.159Z,74.39
2023-12-08T12:26:58.922Z,72.76
2023-12-08T12:28:00.824Z,72.20
2023-12-08T12:29:02.498Z,75.34
2023-12-08T12:30:05.073Z,74.84
2023-12-08T12:31:06.721Z,72.25
2023-12-08T12:32:09.404Z,75.35
2023-12-08T12:33:11.587Z,75.29
2023-12-08T12:34:13.374Z,78.45
2023-12-08T12:35:15.294Z,76.82
2023-12-08T12:36:17.218Z,75.49
2023-12-08T12:37:19.889Z,73.59
2023-12-08T12:38:21.547Z,71.45
2023-12-08T12:39:24.672Z,70.84
2023-12-08T12:40:26.362Z,70.21
2023-12-08T12:41:28.086Z,70.45
2023-12-08T12:42:29.683Z,70.53
2023-12-08T12:43:31.743Z,72.15
2023-12-08T12:44:43.247Z,73.01
2023-12-08T12:45:44.845Z,73.36
2023-12-08T12:46:46.542Z,71.48
2023-12-08T12:47:48.842Z,72.22
2023-12-08T12:48:50.661Z,71.00
2023-12-08T12:50:05.868Z,75.58
2023-12-08T12:51:08.869Z,72.41
2023-12-08T12:52:27.390Z,73.14
2023-12-08T12:53:30.518Z,73.09
2023-12-08T12:54:36.214Z,71.83
2023-12-08T12:55:37.808Z,72.45
2023-12-08T12:56:49.538Z,71.94
2023-12-08T12:57:51.552Z,70.66
2023-12-08T12:59:04.702Z,72.37
2023-12-08T13:00:07.057Z,72.02
2023-12-08T13:01:15.193Z,70.81
2023-12-08T13:02:16.841Z,69.71
2023-12-08T13:03:20.593Z,69.88
2023-12-08T13:04:28.338Z,71.47
2023-12-08T13:05:29.983Z,70.76
2023-12-08T13:06:33.460Z,69.85
2023-12-08T13:07:35.893Z,69.18
2023-12-08T13:08:45.082Z,69.18
2023-12-08T13:09:46.761Z,69.14
2023-12-08T13:10:49.137Z,68.33
2023-12-08T13:11:50.744Z,68.18
2023-12-08T13:12:52.422Z,68.46
2023-12-08T13:13:54.472Z,68.25
2023-12-08T13:14:56.686Z,67.45
2023-12-08T13:15:59.419Z,68.21
2023-12-08T13:17:00.976Z,67.99
2023-12-08T13:18:04.770Z,68.85
2023-12-08T13:19:06.937Z,70.10
2023-12-08T13:20:09.602Z,73.80
2023-12-08T13:21:11.187Z,71.69
2023-12-08T13:22:12.773Z,70.45
2023-12-08T13:23:14.975Z,70.08
2023-12-08T13:24:16.574Z,68.85
2023-12-08T13:25:18.251Z,69.75
2023-12-08T13:26:19.881Z,69.69
2023-12-08T13:27:21.559Z,70.78
2023-12-08T13:28:23.368Z,70.75
2023-12-08T13:29:25.264Z,70.19